Portada
METAR-TAF:

METAR-TAF

Aeroports :

Aupaluk, Quebec, Canadà

latitud: 59-17-48N, longitud: 069-35-59W, altitud: 35 m

Observació

L'informe es va fer fa 5 hores i 47 minuts, a les 21:00 UTC
Vent 12 kt del Oest/Sud-Oest
Temperatura -3°C
Humitat 80%
Pressió 1013 hPa
Visibilitat: 24.1 km
Núvols disperses a una alçada de 2100 ft
Cel ennuvolat a una alçada de 9400 ft

METAR: CYLA 262100Z 25012KT 15SM SCT021 BKN094 M03/M06 A2992 RMK SC4AS1 LAST STFD OBS/NXT 271200Z SLP136

Hora: 22:47 (02:47 UTC)


TAF: manca

Observacions i pronòstics meteorològics de més de 4000 aeroports (METAR i TAF).

Les estacions disponibles són els punts grocs i vermells al mapa.

Posi el ratolí al punt desitjat per veure el nom de l'estació.

Feu clic per veure les observacions i els pronòstics meteorològics.

Per canviar el mapa: feu clic els botons verds amb una creu de color negre per apropar; al botó verd amb un guió per allunyar la imatge; o en les fletxes verdes per a mapes adjacents.


METAR-TAF: